createdAt,value
2023-01-01T00:00:07.008Z,95934
2023-01-01T00:01:16.612Z,95936
2023-01-01T00:02:25.360Z,95932
2023-01-01T00:03:34.993Z,95932
2023-01-01T00:04:44.691Z,95938
2023-01-01T00:05:53.370Z,95943
2023-01-01T00:07:03.164Z,95942
2023-01-01T00:08:12.831Z,95933
2023-01-01T00:09:22.611Z,95944
2023-01-01T00:10:32.322Z,95940
2023-01-01T00:11:41.987Z,95945
2023-01-01T00:12:51.669Z,95943
2023-01-01T00:14:03.277Z,95941
2023-01-01T00:15:12.096Z,95943
2023-01-01T00:16:20.871Z,95942
2023-01-01T00:17:29.451Z,95941
2023-01-01T00:18:39.184Z,95940
2023-01-01T00:19:48.878Z,95946
2023-01-01T00:20:58.588Z,95948
2023-01-01T00:22:28.186Z,95951
2023-01-01T00:23:18.946Z,95955
2023-01-01T00:24:27.647Z,95961
2023-01-01T00:25:37.350Z,95967
2023-01-01T00:26:46.095Z,95966
2023-01-01T00:27:55.812Z,95972
2023-01-01T00:29:05.487Z,95977
2023-01-01T00:30:15.183Z,95979
2023-01-01T00:31:23.930Z,95990
2023-01-01T00:32:33.601Z,96000
2023-01-01T00:33:42.323Z,96004
2023-01-01T00:34:52.003Z,96010
2023-01-01T00:36:00.692Z,96001
2023-01-01T00:37:09.395Z,95994
2023-01-01T00:38:19.189Z,95999
2023-01-01T00:39:27.838Z,95998
2023-01-01T00:40:37.555Z,96007
2023-01-01T00:41:47.380Z,96007
2023-01-01T00:42:56.065Z,96008
2023-01-01T00:44:05.785Z,96001
2023-01-01T00:45:20.803Z,96013
2023-01-01T00:46:25.242Z,96016
2023-01-01T00:47:34.911Z,96019
2023-01-01T00:48:42.583Z,96009
2023-01-01T00:49:52.271Z,96008
2023-01-01T00:51:01.952Z,96007
2023-01-01T00:52:10.640Z,96006
2023-01-01T00:53:19.378Z,96006
2023-01-01T00:54:29.129Z,96005
2023-01-01T00:55:37.794Z,96004
2023-01-01T00:56:47.561Z,96009
2023-01-01T00:57:57.288Z,96006
2023-01-01T00:59:06.000Z,96005
2023-01-01T01:00:15.736Z,96005
2023-01-01T01:01:25.497Z,96006
2023-01-01T01:02:35.331Z,96013
2023-01-01T01:03:44.822Z,96010
2023-01-01T01:04:54.544Z,96012
2023-01-01T01:06:03.226Z,96010
2023-01-01T01:07:11.935Z,96009
2023-01-01T01:08:25.467Z,96009
2023-01-01T01:09:32.297Z,96007
2023-01-01T01:10:40.969Z,96010
2023-01-01T01:11:49.677Z,96019
2023-01-01T01:13:00.340Z,96020
2023-01-01T01:14:09.027Z,96015
2023-01-01T01:15:17.697Z,96005
2023-01-01T01:16:27.425Z,96012
2023-01-01T01:17:37.094Z,96021
2023-01-01T01:18:44.766Z,96019
2023-01-01T01:19:54.474Z,96022
2023-01-01T01:21:04.256Z,96025
2023-01-01T01:22:14.016Z,96026
2023-01-01T01:23:23.688Z,96028
2023-01-01T01:24:33.465Z,96031
2023-01-01T01:25:43.219Z,96039
2023-01-01T01:26:52.926Z,96035
2023-01-01T01:28:01.698Z,96031
2023-01-01T01:29:10.441Z,96038
2023-01-01T01:30:20.299Z,96036
2023-01-01T01:31:30.059Z,96033
2023-01-01T01:32:39.779Z,96038
2023-01-01T01:33:48.597Z,96045
2023-01-01T01:34:57.416Z,96039
2023-01-01T01:36:07.155Z,96036
2023-01-01T01:37:15.880Z,96035
2023-01-01T01:38:25.643Z,96037
2023-01-01T01:39:35.464Z,96038
2023-01-01T01:40:43.239Z,96040
2023-01-01T01:41:53.091Z,96041
2023-01-01T01:43:02.783Z,96040
2023-01-01T01:44:11.571Z,96037
2023-01-01T01:45:21.308Z,96037
2023-01-01T01:46:32.082Z,96038
2023-01-01T01:47:40.833Z,96037
2023-01-01T01:48:50.588Z,96039
2023-01-01T01:49:59.421Z,96042
2023-01-01T01:51:08.154Z,96036
2023-01-01T01:52:16.884Z,96033
2023-01-01T01:53:25.690Z,96036
2023-01-01T01:54:35.395Z,96034
2023-01-01T01:55:43.240Z,96040
2023-01-01T01:56:52.942Z,96038
2023-01-01T01:58:02.759Z,96034
2023-01-01T01:59:11.533Z,96036
2023-01-01T02:00:20.284Z,96033
2023-01-01T02:01:30.507Z,96030
2023-01-01T02:02:40.258Z,96033
2023-01-01T02:03:49.836Z,96032
2023-01-01T02:04:57.634Z,96032
2023-01-01T02:06:07.334Z,96030
2023-01-01T02:07:17.143Z,96034
2023-01-01T02:08:25.971Z,96030
2023-01-01T02:09:34.734Z,96030
2023-01-01T02:10:44.570Z,96031
2023-01-01T02:11:53.330Z,96031
2023-01-01T02:13:03.069Z,96017
2023-01-01T02:14:10.863Z,96016
2023-01-01T02:15:20.585Z,96014
2023-01-01T02:16:31.348Z,96011
2023-01-01T02:17:41.073Z,96012
2023-01-01T02:18:49.875Z,96012
2023-01-01T02:19:58.602Z,96013
2023-01-01T02:21:07.412Z,96009
2023-01-01T02:22:17.175Z,96011
2023-01-01T02:23:26.907Z,96012
2023-01-01T02:24:35.673Z,96008
2023-01-01T02:25:45.390Z,96010
2023-01-01T02:26:55.139Z,96004
2023-01-01T02:28:04.886Z,96005
2023-01-01T02:29:13.623Z,96007
2023-01-01T02:30:23.343Z,96012
2023-01-01T02:31:32.129Z,96010
2023-01-01T02:32:41.849Z,96007
2023-01-01T02:33:51.653Z,96010
2023-01-01T02:35:01.393Z,96004
2023-01-01T02:36:11.137Z,96010
2023-01-01T02:37:20.935Z,96008
2023-01-01T02:38:29.697Z,96014
2023-01-01T02:39:39.576Z,96015
2023-01-01T02:40:47.331Z,96010
2023-01-01T02:41:57.133Z,96014
2023-01-01T02:43:06.846Z,96006
2023-01-01T02:44:15.672Z,96013
2023-01-01T02:45:25.388Z,96006
2023-01-01T02:46:34.230Z,96007
2023-01-01T02:47:42.916Z,95995
2023-01-01T02:48:52.654Z,96003
2023-01-01T02:50:01.433Z,95995
2023-01-01T02:51:09.158Z,95994
2023-01-01T02:52:19.004Z,95996
2023-01-01T02:53:27.900Z,95995
2023-01-01T02:54:36.700Z,95999
2023-01-01T02:55:45.529Z,95997
2023-01-01T02:56:54.243Z,95996
2023-01-01T02:58:03.979Z,95995
2023-01-01T02:59:13.830Z,95997
2023-01-01T03:00:23.601Z,96000
2023-01-01T03:01:33.405Z,96002
2023-01-01T03:02:48.502Z,95999
2023-01-01T03:03:52.786Z,96001
2023-01-01T03:05:02.526Z,95999
2023-01-01T03:06:12.320Z,95998
2023-01-01T03:07:21.039Z,95996
2023-01-01T03:08:31.796Z,95999
2023-01-01T03:09:41.569Z,95994
2023-01-01T03:10:50.357Z,96002
2023-01-01T03:11:59.093Z,96010
2023-01-01T03:13:08.832Z,96005
2023-01-01T03:14:18.557Z,96004
2023-01-01T03:15:28.488Z,96007
2023-01-01T03:16:38.250Z,96000
2023-01-01T03:17:47.988Z,96001
2023-01-01T03:18:57.712Z,96006
2023-01-01T03:20:06.443Z,96002
2023-01-01T03:22:16.787Z,96006
2023-01-01T03:23:26.343Z,96001
2023-01-01T03:24:35.117Z,96006
2023-01-01T03:25:43.795Z,96011
2023-01-01T03:26:53.581Z,96006
2023-01-01T03:28:03.376Z,96006
2023-01-01T03:29:11.108Z,96013
2023-01-01T03:30:20.820Z,96015
2023-01-01T03:31:30.688Z,96020
2023-01-01T03:32:39.317Z,96016
2023-01-01T03:33:48.038Z,96013
2023-01-01T03:34:56.725Z,96013
2023-01-01T03:36:06.462Z,96017
2023-01-01T03:37:16.230Z,96011
2023-01-01T03:38:24.944Z,96016
2023-01-01T03:39:34.669Z,96019
2023-01-01T03:40:44.406Z,96022
2023-01-01T03:41:53.137Z,96022
2023-01-01T03:43:02.859Z,96020
2023-01-01T03:44:11.596Z,96021
2023-01-01T03:45:20.314Z,96023
2023-01-01T03:46:30.134Z,96030
2023-01-01T03:47:39.819Z,96026
2023-01-01T03:48:49.573Z,96027
2023-01-01T03:50:00.245Z,96027
2023-01-01T03:51:07.969Z,96031
2023-01-01T03:52:17.709Z,96034
2023-01-01T03:53:27.405Z,96037
2023-01-01T03:54:37.161Z,96038
2023-01-01T03:55:46.915Z,96041
2023-01-01T03:56:56.598Z,96040
2023-01-01T03:58:06.447Z,96048
2023-01-01T03:59:16.190Z,96046
2023-01-01T04:00:24.929Z,96050
2023-01-01T04:01:33.803Z,96053
2023-01-01T04:02:43.663Z,96052
2023-01-01T04:03:52.229Z,96049
2023-01-01T04:05:01.939Z,96053
2023-01-01T04:06:09.673Z,96050
2023-01-01T04:07:19.413Z,96055
2023-01-01T04:08:29.105Z,96050
2023-01-01T04:09:37.873Z,96050
2023-01-01T04:10:46.607Z,96052
2023-01-01T04:11:56.355Z,96051
2023-01-01T04:13:05.108Z,96054
2023-01-01T04:14:14.856Z,96051
2023-01-01T04:15:24.711Z,96054
2023-01-01T04:16:33.479Z,96054
2023-01-01T04:17:43.177Z,96060
2023-01-01T04:18:51.999Z,96066
2023-01-01T04:20:00.691Z,96057
2023-01-01T04:21:10.394Z,96055
2023-01-01T04:22:19.100Z,96050
2023-01-01T04:23:28.851Z,96050
2023-01-01T04:24:37.565Z,96042
2023-01-01T04:25:47.332Z,96045
2023-01-01T04:26:57.140Z,96046
2023-01-01T04:28:06.873Z,96042
2023-01-01T04:29:15.712Z,96042
2023-01-01T04:30:24.444Z,96039
2023-01-01T04:31:34.233Z,96040
2023-01-01T04:32:43.899Z,96040
2023-01-01T04:33:53.597Z,96043
2023-01-01T04:35:03.383Z,96044
2023-01-01T04:36:13.066Z,96053
2023-01-01T04:37:21.826Z,96051
2023-01-01T04:38:31.556Z,96048
2023-01-01T04:39:40.448Z,96047
2023-01-01T04:40:50.246Z,96047
2023-01-01T04:41:58.975Z,96054
2023-01-01T04:43:07.715Z,96052
2023-01-01T04:44:17.523Z,96047
2023-01-01T04:45:27.278Z,96054
2023-01-01T04:46:37.162Z,96050
2023-01-01T04:47:45.897Z,96056
2023-01-01T04:48:55.634Z,96056
2023-01-01T04:50:04.325Z,96057
2023-01-01T04:51:14.057Z,96057
2023-01-01T04:52:22.792Z,96056
2023-01-01T04:53:31.473Z,96054
2023-01-01T04:54:42.190Z,96059
2023-01-01T04:55:49.912Z,96059
2023-01-01T04:56:58.590Z,96059
2023-01-01T04:58:08.328Z,96062
2023-01-01T04:59:17.033Z,96065
2023-01-01T05:00:26.732Z,96069
2023-01-01T05:01:35.546Z,96071
2023-01-01T05:02:45.283Z,96068
2023-01-01T05:03:53.924Z,96070
2023-01-01T05:05:02.629Z,96067
2023-01-01T05:06:12.358Z,96067
2023-01-01T05:07:21.103Z,96069
2023-01-01T05:08:31.765Z,96067
2023-01-01T05:09:41.475Z,96070
2023-01-01T05:10:50.183Z,96067
2023-01-01T05:11:59.904Z,96066
2023-01-01T05:13:07.579Z,96066
2023-01-01T05:14:17.297Z,96067
2023-01-01T05:15:27.033Z,96066
2023-01-01T05:16:35.805Z,96067
2023-01-01T05:17:45.415Z,96075
2023-01-01T05:18:54.141Z,96068
2023-01-01T05:20:02.952Z,96070
2023-01-01T05:21:12.687Z,96070
2023-01-01T05:22:21.398Z,96070
2023-01-01T05:23:31.126Z,96072
2023-01-01T05:24:40.823Z,96072
2023-01-01T05:25:49.534Z,96068
2023-01-01T05:26:58.330Z,96072
2023-01-01T05:28:07.107Z,96068
2023-01-01T05:29:17.570Z,96068
2023-01-01T05:30:25.550Z,96070
2023-01-01T05:31:33.312Z,96070
2023-01-01T05:32:43.018Z,96073
2023-01-01T05:33:52.722Z,96071
2023-01-01T05:35:00.365Z,96071
2023-01-01T05:36:09.123Z,96069
2023-01-01T05:37:18.817Z,96066
2023-01-01T05:38:27.517Z,96070
2023-01-01T05:39:37.281Z,96068
2023-01-01T05:40:45.958Z,96069
2023-01-01T05:41:54.646Z,96064
2023-01-01T05:43:04.350Z,96064
2023-01-01T05:44:14.114Z,96066
2023-01-01T05:45:23.873Z,96064
2023-01-01T05:46:33.571Z,96066
2023-01-01T05:47:43.255Z,96066
2023-01-01T05:48:52.965Z,96065
2023-01-01T05:50:00.738Z,96069
2023-01-01T05:51:05.268Z,96072
2023-01-01T05:52:15.009Z,96077
2023-01-01T05:53:25.687Z,96083
2023-01-01T05:54:35.419Z,96084
2023-01-01T05:55:46.210Z,96082
2023-01-01T05:56:54.955Z,96086
2023-01-01T05:58:04.665Z,96085
2023-01-01T05:59:12.367Z,96081
2023-01-01T06:00:22.091Z,96086
2023-01-01T06:01:31.892Z,96086
2023-01-01T06:02:41.619Z,96088
2023-01-01T06:03:50.303Z,96092
2023-01-01T06:04:59.001Z,96097
2023-01-01T06:06:07.738Z,96099
2023-01-01T06:07:17.461Z,96109
2023-01-01T06:08:26.155Z,96105
2023-01-01T06:09:34.864Z,96109
2023-01-01T06:10:44.534Z,96104
2023-01-01T06:11:54.260Z,96105
2023-01-01T06:13:08.010Z,96110
2023-01-01T06:14:14.638Z,96106
2023-01-01T06:15:23.345Z,96105
2023-01-01T06:16:33.090Z,96109
2023-01-01T06:17:41.736Z,96114
2023-01-01T06:18:51.454Z,96106
2023-01-01T06:20:01.193Z,96109
2023-01-01T06:21:10.945Z,96108
2023-01-01T06:22:19.682Z,96111
2023-01-01T06:23:29.385Z,96115
2023-01-01T06:24:39.460Z,96113
2023-01-01T06:25:48.846Z,96118
2023-01-01T06:26:57.577Z,96119
2023-01-01T06:28:07.275Z,96120
2023-01-01T06:29:16.987Z,96119
2023-01-01T06:30:26.812Z,96123
2023-01-01T06:31:40.564Z,96118
2023-01-01T06:32:46.145Z,96121
2023-01-01T06:33:55.881Z,96130
2023-01-01T06:35:05.658Z,96129
2023-01-01T06:36:15.450Z,96124
2023-01-01T06:37:24.298Z,96127
2023-01-01T06:38:34.008Z,96131
2023-01-01T06:39:42.727Z,96129
2023-01-01T06:40:51.436Z,96135
2023-01-01T06:42:00.262Z,96127
2023-01-01T06:43:10.009Z,96128
2023-01-01T06:44:19.712Z,96128
2023-01-01T06:45:28.666Z,96124
2023-01-01T06:46:37.411Z,96130
2023-01-01T06:47:47.151Z,96134
2023-01-01T06:48:56.873Z,96135
2023-01-01T06:50:05.597Z,96138
2023-01-01T06:51:14.345Z,96139
2023-01-01T06:52:24.110Z,96136
2023-01-01T06:53:33.862Z,96135
2023-01-01T06:54:42.594Z,96131
2023-01-01T06:55:57.021Z,96129
2023-01-01T06:57:01.941Z,96128
2023-01-01T06:58:10.638Z,96123
2023-01-01T06:59:20.369Z,96124
2023-01-01T07:00:28.064Z,96129
2023-01-01T07:01:36.919Z,96136
2023-01-01T07:02:47.613Z,96142
2023-01-01T07:03:56.153Z,96143
2023-01-01T07:05:05.915Z,96144
2023-01-01T07:06:14.659Z,96147
2023-01-01T07:07:24.353Z,96148
2023-01-01T07:08:35.094Z,96148
2023-01-01T07:09:43.781Z,96150
2023-01-01T07:10:53.477Z,96148
2023-01-01T07:12:03.174Z,96146
2023-01-01T07:13:12.914Z,96149
2023-01-01T07:14:22.583Z,96150
2023-01-01T07:15:31.385Z,96149
2023-01-01T07:16:40.210Z,96151
2023-01-01T07:17:49.973Z,96155
2023-01-01T07:18:58.706Z,96161
2023-01-01T07:20:08.447Z,96162
2023-01-01T07:21:18.986Z,96163
2023-01-01T07:22:29.013Z,96170
2023-01-01T07:23:38.781Z,96170
2023-01-01T07:24:47.535Z,96172
2023-01-01T07:25:57.315Z,96176
2023-01-01T07:27:07.056Z,96179
2023-01-01T07:28:16.839Z,96176
2023-01-01T07:29:26.536Z,96180
2023-01-01T07:30:35.286Z,96173
2023-01-01T07:31:45.000Z,96175
2023-01-01T07:32:54.716Z,96179
2023-01-01T07:34:02.450Z,96178
2023-01-01T07:35:11.164Z,96175
2023-01-01T07:36:20.896Z,96174
2023-01-01T07:37:30.602Z,96176
2023-01-01T07:38:39.296Z,96180
2023-01-01T07:39:49.487Z,96184
2023-01-01T07:40:59.199Z,96178
2023-01-01T07:42:11.022Z,96183
2023-01-01T07:43:17.626Z,96188
2023-01-01T07:44:27.383Z,96190
2023-01-01T07:45:37.083Z,96187
2023-01-01T07:46:45.878Z,96189
2023-01-01T07:47:54.491Z,96192
2023-01-01T07:49:03.235Z,96200
2023-01-01T07:50:12.940Z,96198
2023-01-01T07:51:22.666Z,96206
2023-01-01T07:52:31.364Z,96206
2023-01-01T07:53:40.125Z,96206
2023-01-01T07:54:49.813Z,96205
2023-01-01T07:55:57.519Z,96204
2023-01-01T07:57:07.290Z,96203
2023-01-01T07:58:17.022Z,96206
2023-01-01T07:59:25.736Z,96209
2023-01-01T08:00:35.465Z,96211
2023-01-01T08:01:45.237Z,96213
2023-01-01T08:02:53.970Z,96208
2023-01-01T08:04:03.633Z,96210
2023-01-01T08:05:13.527Z,96215
2023-01-01T08:06:24.212Z,96213
2023-01-01T08:07:33.945Z,96218
2023-01-01T08:08:43.718Z,96220
2023-01-01T08:09:53.459Z,96218
2023-01-01T08:11:03.736Z,96222
2023-01-01T08:12:09.821Z,96217
2023-01-01T08:13:19.536Z,96217
2023-01-01T08:14:28.298Z,96217
2023-01-01T08:15:38.089Z,96217
2023-01-01T08:16:47.712Z,96220
2023-01-01T08:17:56.424Z,96216
2023-01-01T08:19:06.163Z,96218
2023-01-01T08:20:14.930Z,96218
2023-01-01T08:21:23.653Z,96216
2023-01-01T08:22:33.417Z,96219
2023-01-01T08:23:41.175Z,96212
2023-01-01T08:24:49.903Z,96211
2023-01-01T08:25:59.649Z,96201
2023-01-01T08:27:08.366Z,96203
2023-01-01T08:28:18.104Z,96209
2023-01-01T08:29:26.832Z,96204
2023-01-01T08:30:35.570Z,96204
2023-01-01T08:31:45.320Z,96206
2023-01-01T08:32:55.062Z,96210
2023-01-01T08:34:04.787Z,96210
2023-01-01T08:35:14.527Z,96208
2023-01-01T08:36:24.260Z,96208
2023-01-01T08:37:34.030Z,96213
2023-01-01T08:38:41.789Z,96215
2023-01-01T08:39:50.524Z,96210
2023-01-01T08:41:00.242Z,96211
2023-01-01T08:42:12.312Z,96212
2023-01-01T08:43:17.706Z,96213
2023-01-01T08:44:27.384Z,96214
2023-01-01T08:45:36.123Z,96212
2023-01-01T08:46:45.872Z,96212
2023-01-01T08:47:55.617Z,96216
2023-01-01T08:49:04.323Z,96215
2023-01-01T08:50:14.073Z,96213
2023-01-01T08:51:21.734Z,96221
2023-01-01T08:52:31.477Z,96225
2023-01-01T08:53:44.153Z,96222
2023-01-01T08:54:51.843Z,96219
2023-01-01T08:56:01.576Z,96218
2023-01-01T08:57:11.248Z,96220
2023-01-01T08:58:20.939Z,96220
2023-01-01T08:59:30.638Z,96218
2023-01-01T09:00:39.334Z,96224
2023-01-01T09:01:49.267Z,96226
2023-01-01T09:02:58.894Z,96225
2023-01-01T09:04:13.632Z,96232
2023-01-01T09:05:19.093Z,96227
2023-01-01T09:06:27.805Z,96228
2023-01-01T09:07:37.526Z,96233
2023-01-01T09:08:47.259Z,96233
2023-01-01T09:09:55.972Z,96236
2023-01-01T09:11:05.672Z,96231
2023-01-01T09:12:15.375Z,96237
2023-01-01T09:13:25.060Z,96240
2023-01-01T09:14:34.742Z,96239
2023-01-01T09:15:44.566Z,96239
2023-01-01T09:16:54.193Z,96240
2023-01-01T09:18:01.940Z,96246
2023-01-01T09:19:11.724Z,96243
2023-01-01T09:20:21.448Z,96244
2023-01-01T09:21:30.123Z,96244
2023-01-01T09:22:38.871Z,96243
2023-01-01T09:23:47.582Z,96245
2023-01-01T09:24:56.307Z,96249
2023-01-01T09:26:05.999Z,96252
2023-01-01T09:27:14.846Z,96250
2023-01-01T09:28:37.459Z,96249
2023-01-01T09:29:47.145Z,96248
2023-01-01T09:30:56.799Z,96256
2023-01-01T09:32:06.497Z,96259
2023-01-01T09:33:16.341Z,96257
2023-01-01T09:34:24.959Z,96263
2023-01-01T09:35:34.637Z,96261
2023-01-01T09:36:44.316Z,96254
2023-01-01T09:37:51.991Z,96261
2023-01-01T09:39:00.636Z,96267
2023-01-01T09:40:09.295Z,96260
2023-01-01T09:41:18.002Z,96265
2023-01-01T09:42:27.661Z,96260
2023-01-01T09:43:36.368Z,96259
2023-01-01T09:44:46.025Z,96256
2023-01-01T09:45:55.752Z,96256
2023-01-01T09:47:05.452Z,96254
2023-01-01T09:48:15.107Z,96259
2023-01-01T09:49:24.799Z,96258
2023-01-01T09:50:33.437Z,96256
2023-01-01T09:51:48.879Z,96255
2023-01-01T09:52:53.762Z,96255
2023-01-01T09:54:02.458Z,96254
2023-01-01T09:55:12.133Z,96253
2023-01-01T09:56:21.794Z,96257
2023-01-01T09:57:30.451Z,96250
2023-01-01T09:58:39.147Z,96251
2023-01-01T09:59:47.824Z,96250
2023-01-01T10:00:57.542Z,96248
2023-01-01T10:02:06.232Z,96245
2023-01-01T10:03:13.835Z,96248
2023-01-01T10:04:23.642Z,96249
2023-01-01T10:05:31.285Z,96251
2023-01-01T10:06:40.953Z,96243
2023-01-01T10:07:49.625Z,96240
2023-01-01T10:08:58.302Z,96244
2023-01-01T10:10:07.989Z,96242
2023-01-01T10:11:15.651Z,96244
2023-01-01T10:12:24.323Z,96242
2023-01-01T10:13:33.988Z,96236
2023-01-01T10:14:41.657Z,96235
2023-01-01T10:15:51.373Z,96228
2023-01-01T10:17:00.116Z,96229
2023-01-01T10:18:09.698Z,96230
2023-01-01T10:19:19.373Z,96226
2023-01-01T10:20:29.117Z,96226
2023-01-01T10:21:43.487Z,96225
2023-01-01T10:22:49.412Z,96220
2023-01-01T10:23:57.104Z,96221
2023-01-01T10:25:05.769Z,96219
2023-01-01T10:26:14.447Z,96226
2023-01-01T10:27:24.134Z,96224
2023-01-01T10:28:33.792Z,96222
2023-01-01T10:29:42.580Z,96219
2023-01-01T10:30:52.258Z,96216
2023-01-01T10:32:01.980Z,96214
2023-01-01T10:33:10.623Z,96216
2023-01-01T10:34:20.338Z,96222
2023-01-01T10:35:30.389Z,96223
2023-01-01T10:36:38.674Z,96221
2023-01-01T10:37:47.362Z,96220
2023-01-01T10:38:56.026Z,96216
2023-01-01T10:40:05.720Z,96209
2023-01-01T10:41:19.759Z,96207
2023-01-01T10:42:25.027Z,96210
2023-01-01T10:43:32.696Z,96202
2023-01-01T10:44:42.378Z,96204
2023-01-01T10:45:51.041Z,96203
2023-01-01T10:47:00.711Z,96205
2023-01-01T10:48:08.332Z,96196
2023-01-01T10:49:16.997Z,96201
2023-01-01T10:50:26.698Z,96202
2023-01-01T10:51:36.356Z,96200
2023-01-01T10:52:45.037Z,96201
2023-01-01T10:53:54.733Z,96201
2023-01-01T10:55:04.391Z,96200
2023-01-01T10:56:14.043Z,96204
2023-01-01T10:57:22.735Z,96204
2023-01-01T10:58:32.395Z,96201
2023-01-01T10:59:40.057Z,96201
2023-01-01T11:00:50.745Z,96202
2023-01-01T11:02:00.705Z,96192
2023-01-01T11:03:08.209Z,96201
2023-01-01T11:04:17.863Z,96195
2023-01-01T11:05:25.516Z,96194
2023-01-01T11:06:35.210Z,96191
2023-01-01T11:07:44.958Z,96194
2023-01-01T11:08:53.615Z,96194
2023-01-01T11:10:04.588Z,96194
2023-01-01T11:11:12.924Z,96200
2023-01-01T11:12:46.432Z,96197
2023-01-01T11:13:32.278Z,96195
2023-01-01T11:14:41.928Z,96192
2023-01-01T11:15:50.583Z,96193
2023-01-01T11:17:00.320Z,96197
2023-01-01T11:18:09.946Z,96197
2023-01-01T11:19:19.624Z,96189
2023-01-01T11:20:29.278Z,96187
2023-01-01T11:21:38.967Z,96186
2023-01-01T11:22:46.624Z,96179
2023-01-01T11:23:55.307Z,96176
2023-01-01T11:25:04.000Z,96172
2023-01-01T11:26:13.763Z,96174
2023-01-01T11:27:23.477Z,96171
2023-01-01T11:28:33.158Z,96172
2023-01-01T11:29:42.850Z,96170
2023-01-01T11:30:51.582Z,96167
2023-01-01T11:32:00.261Z,96170
2023-01-01T11:33:09.873Z,96166
2023-01-01T11:34:18.520Z,96165
2023-01-01T11:35:28.216Z,96167
2023-01-01T11:36:36.911Z,96162
2023-01-01T11:37:45.590Z,96163
2023-01-01T11:38:55.253Z,96165
2023-01-01T11:40:04.927Z,96163
2023-01-01T11:41:13.591Z,96165
2023-01-01T11:42:23.333Z,96165
2023-01-01T11:43:31.958Z,96164
2023-01-01T11:44:41.619Z,96161
2023-01-01T11:45:49.325Z,96160
2023-01-01T11:46:58.955Z,96163
2023-01-01T11:48:08.656Z,96156
2023-01-01T11:49:17.330Z,96151
2023-01-01T11:50:25.981Z,96151
2023-01-01T11:51:34.669Z,96148
2023-01-01T11:52:43.390Z,96145
2023-01-01T11:53:53.077Z,96146
2023-01-01T11:55:02.739Z,96148
2023-01-01T11:56:11.410Z,96142
2023-01-01T11:57:21.075Z,96141
2023-01-01T11:58:30.809Z,96141
2023-01-01T11:59:39.566Z,96142
2023-01-01T12:00:49.200Z,96140
2023-01-01T12:01:58.972Z,96139
2023-01-01T12:03:08.723Z,96141
2023-01-01T12:04:17.401Z,96143
2023-01-01T12:05:27.108Z,96142
2023-01-01T12:06:36.767Z,96139
2023-01-01T12:07:45.670Z,96139
2023-01-01T12:08:54.243Z,96137
2023-01-01T12:10:03.904Z,96136
2023-01-01T12:11:13.625Z,96141
2023-01-01T12:12:23.311Z,96138
2023-01-01T12:13:31.966Z,96143
2023-01-01T12:14:40.700Z,96143
2023-01-01T12:15:50.394Z,96142
2023-01-01T12:16:59.025Z,96142
2023-01-01T12:18:07.709Z,96143
2023-01-01T12:19:15.371Z,96142
2023-01-01T12:20:25.027Z,96141
2023-01-01T12:21:34.708Z,96143
2023-01-01T12:22:42.379Z,96139
2023-01-01T12:23:51.043Z,96140
2023-01-01T12:25:00.720Z,96137
2023-01-01T12:26:09.435Z,96136
2023-01-01T12:27:19.111Z,96133
2023-01-01T12:28:26.774Z,96132
2023-01-01T12:29:35.425Z,96131
2023-01-01T12:30:45.187Z,96130
2023-01-01T12:31:54.783Z,96128
2023-01-01T12:33:08.041Z,96128
2023-01-01T12:34:14.150Z,96128
2023-01-01T12:35:22.929Z,96126
2023-01-01T12:36:32.635Z,96124
2023-01-01T12:37:42.406Z,96119
2023-01-01T12:38:52.093Z,96118
2023-01-01T12:40:01.807Z,96110
2023-01-01T12:41:11.405Z,96113
2023-01-01T12:42:20.092Z,96108
2023-01-01T12:43:29.760Z,96115
2023-01-01T12:44:38.433Z,96112
2023-01-01T12:45:48.233Z,96117
2023-01-01T12:46:57.867Z,96113
2023-01-01T12:48:06.546Z,96109
2023-01-01T12:49:16.214Z,96111
2023-01-01T12:50:24.971Z,96110
2023-01-01T12:51:33.650Z,96108
2023-01-01T12:52:43.463Z,96107
2023-01-01T12:53:52.122Z,96106
2023-01-01T12:55:01.793Z,96104
2023-01-01T12:56:09.428Z,96100
2023-01-01T12:57:19.101Z,96105
2023-01-01T12:58:27.752Z,96106
2023-01-01T12:59:36.413Z,96110
2023-01-01T13:00:46.072Z,96107
2023-01-01T13:01:55.978Z,96109
2023-01-01T13:03:04.494Z,96109
2023-01-01T13:04:14.081Z,96110
2023-01-01T13:05:22.741Z,96112
2023-01-01T13:06:31.407Z,96116
2023-01-01T13:07:40.099Z,96115
2023-01-01T13:08:48.926Z,96114
2023-01-01T13:09:58.582Z,96117
2023-01-01T13:11:07.236Z,96116
2023-01-01T13:12:16.894Z,96117
2023-01-01T13:13:26.647Z,96118
2023-01-01T13:14:36.351Z,96119
2023-01-01T13:15:46.166Z,96114
2023-01-01T13:16:54.773Z,96110
2023-01-01T13:18:04.533Z,96116
2023-01-01T13:19:14.198Z,96113
2023-01-01T13:20:23.893Z,96115
2023-01-01T13:21:33.545Z,96111
2023-01-01T13:22:43.286Z,96111
2023-01-01T13:23:51.880Z,96110
2023-01-01T13:25:00.521Z,96110
2023-01-01T13:26:09.277Z,96114
2023-01-01T13:27:17.928Z,96109
2023-01-01T13:28:27.583Z,96113
2023-01-01T13:29:36.307Z,96114
2023-01-01T13:30:44.932Z,96116
2023-01-01T13:31:54.674Z,96119
2023-01-01T13:33:03.500Z,96117
2023-01-01T13:34:12.527Z,96113
2023-01-01T13:35:22.257Z,96111
2023-01-01T13:36:32.055Z,96119
2023-01-01T13:37:41.771Z,96112
2023-01-01T13:38:49.575Z,96115
2023-01-01T13:39:59.307Z,96116
2023-01-01T13:41:08.971Z,96112
2023-01-01T13:42:16.685Z,96112
2023-01-01T13:43:25.365Z,96115
2023-01-01T13:44:35.025Z,96114
2023-01-01T13:46:10.856Z,96118
2023-01-01T13:46:54.393Z,96118
2023-01-01T13:48:01.966Z,96117
2023-01-01T13:49:10.807Z,96116
2023-01-01T13:50:20.535Z,96116
2023-01-01T13:52:03.273Z,96120
2023-01-01T13:52:38.827Z,96123
2023-01-01T13:53:48.510Z,96123
2023-01-01T13:54:57.197Z,96118
2023-01-01T13:56:06.931Z,96124
2023-01-01T13:57:16.581Z,96120
2023-01-01T13:58:26.326Z,96119
2023-01-01T13:59:36.001Z,96122
2023-01-01T14:00:49.523Z,96122
2023-01-01T14:01:53.464Z,96123
2023-01-01T14:03:03.146Z,96123
2023-01-01T14:04:12.706Z,96120
2023-01-01T14:05:22.392Z,96120
2023-01-01T14:06:31.109Z,96119
2023-01-01T14:07:51.032Z,96123
2023-01-01T14:08:51.424Z,96126
2023-01-01T14:10:00.121Z,96123
2023-01-01T14:11:09.795Z,96126
2023-01-01T14:12:19.566Z,96127
2023-01-01T14:13:29.927Z,96126
2023-01-01T14:14:37.979Z,96126
2023-01-01T14:15:47.934Z,96126
2023-01-01T14:16:57.618Z,96128
2023-01-01T14:18:07.354Z,96124
2023-01-01T14:19:16.494Z,96123
2023-01-01T14:20:25.664Z,96121
2023-01-01T14:21:35.352Z,96119
2023-01-01T14:22:44.070Z,96123
2023-01-01T14:23:53.778Z,96119
2023-01-01T14:25:09.152Z,96123
2023-01-01T14:26:13.065Z,96119
2023-01-01T14:27:22.744Z,96120
2023-01-01T14:28:30.412Z,96118
2023-01-01T14:29:39.074Z,96119
2023-01-01T14:30:47.928Z,96124
2023-01-01T14:31:57.702Z,96122
2023-01-01T14:33:07.343Z,96120
2023-01-01T14:34:16.079Z,96121
2023-01-01T14:35:24.822Z,96123
2023-01-01T14:36:34.518Z,96122
2023-01-01T14:37:42.312Z,96128
2023-01-01T14:38:50.977Z,96122
2023-01-01T14:39:59.704Z,96125
2023-01-01T14:41:09.423Z,96127
2023-01-01T14:42:19.126Z,96126
2023-01-01T14:43:26.850Z,96131
2023-01-01T14:44:35.554Z,96127
2023-01-01T14:45:45.236Z,96123
2023-01-01T14:46:52.942Z,96122
2023-01-01T14:48:01.619Z,96127
2023-01-01T14:49:10.398Z,96125
2023-01-01T14:50:20.076Z,96125
2023-01-01T14:51:29.733Z,96125
2023-01-01T14:52:39.459Z,96121